You are here

Stations

Station Name Date Time Temperature Relative Humidity Precipitation Wind Speed Wind Direction Create Custom Report Daily Report Hourly Report
A&O Farm 2022-29-11 18:00 70.4 91.30 0.05 15.18 SSW
Aberdeen VTcr 2022-29-11 18:00 65.0 90.10 3.62 6.33 SSW
Beaumont Exp Stn 2022-29-11 18:00 73.8 94.40 0.39 6.41 S
Bee Lake 2022-29-11 18:00 64.8 97.90 0.00 1.31 ESE
Black Belt F22-23 VTc 2022-29-11 18:00 72.2 90.80 0.00 6.13 S
Black Belt F24 VTso 2022-29-11 18:00 71.0 92.90 0.06 9.76 S
Brooksville 2022-29-11 18:00 71.0 89.00 0.00 11.38 S
Brooksville2 VTso 2022-29-11 18:00 71.2 91.30 0.04
Brown Loam Exp. Stn. 2022-29-11 18:00 69.8 81.30 0.00 7.60 WSW
Clarksdale VTso 2022-29-11 18:00 70.9 94.10 1.06
Cleveland 2022-29-11 18:00 69.4 96.00 0.08 8.37 S
Coastal Res & Ext Cnt 2022-29-11 18:00 71.2 93.50 0.08 2.66 S
COOP Stoneville 2022-18-11 7:00 42.0 96 0.00
Cooper Farm 2022-29-11 18:00 68.2 91.50 0.10 5.57 S
Crystal Sprgs Exp Stn 2022-29-11 18:00 67.7 94.60 0.03 6.30 SW
Crystal Springs VTso 2022-29-11 18:00 67.0 94.90 0.06 7.95 S
Greenwood 2022-29-11 17:45 65.2 97.70 0.14 1.31 SSE
Holly Ridge 2022-29-11 18:00 69.6 87.60 0.26 10.38 S
Home Cypress Farm 2022-29-11 18:00 69.9 91.70 0.58 7.97 SSW
Lake Cormorant VTcr 2022-29-11 18:-1
Lamar 2022-29-11 18:00 65.4 98.00 0.52 2.38 S
Lancaster 2022-29-11 18:00 69.7 86.60 0.20 11.24 S
Longwood VTso 2022-29-11 18:00 67.5 96.50 0.00 6.56 SSE
Lyon 2022-29-11 18:00 67.5 95.90 0.54 2.71 S
Macon VTcr 2022-29-11 18:00 73.0 91.50 0.00 5.88 SSW
Mantee VT 2022-29-11 18:00 66.1 96.20 2.12 3.55 SE
Minter City VTcn 2022-29-11 18:00 68.3 93.80 0.96 9.08 SSW
Money 2022-29-11 18:00 68.7 90.40 0.21 11.45 S
Mound Bayou 2022-29-11 18:00 70.8 95.20 0.35 9.47 SW
MSU North Farm Starkv 2022-29-11 18:00 70.4 85.60 0.02 12.98 NW
Natchez 2022-29-11 18:00 74.5 89.50 0.41 6.14 SSW
Olive Branch2 VTso 2022-29-11 18:-1
Onward VT 2022-29-11 18:00 70.9 92.20 1.10
Pontotoc AWS COOP 2022-29-11 18:-1
Pontotoc Exp Stn 2022-29-11 18:00 65.3 86.90 0.01 6.62 E
Port Gibson 2022-29-11 18:00 68.6 90.40 0.00 5.11 W
Prairie 2022-29-11 17:30 64.6 94.10 1.99 9.97 WNW
Senatobia 2022-29-11 18:00 67.8 93.40 0.60 6.29 S
Shurden Farm 2022-29-11 18:00 70.1 89.50 0.20 10.58 SSW
Sidon 2022-29-11 17:45 68.5 94.10 0.45 8.04 SSW
Stoneville AWS 2022-29-11 18:00 68.4 90.20 0.12 8.89 S
Stoneville F10 2022-29-11 18:00 69.4 85.90 0.14 10.66 SSW
Stoneville F17 VT 2022-29-11 18:00 0.00 0.13
Stoneville F7 VT 2022-29-11 18:00 70.2 75.79 0.00
Stoneville W 2022-29-11 18:00 69.8 85.70 0.20 9.42 S
Stoneville_F8 2022-29-11 18:00 69.7 89.30 0.17 6.88 SSE
Stoneville_SW 2022-29-11 18:00 69.8 91.70 0.17 8.39 NNE
Thighman 2022-29-11 18:00 70.2 95.40 0.12 5.48 S
Tippo VT 2022-29-11 18:00 68.5 96.80 0.70
Tribbett 2022-29-11 18:00 68.0 95.00 0.29 6.17 E
Tunica 2022-29-11 18:00 66.3 95.80 0.10 6.84 S
Verona 2022-29-11 18:00 64.7 92.00 0.02 3.05 S
Verona VTso 2022-29-11 18:00 63.9 96.30 0.02
Vicksburg 2022-29-11 18:00 67.3 99.70 0.65 5.21 ESE
Back to Top